createdAt,value
2023-04-15T00:00:06.388Z,3.4
2023-04-15T00:30:01.174Z,3.6
2023-04-15T01:00:09.005Z,2.9
2023-04-15T01:30:09.340Z,2.4
2023-04-15T02:00:01.274Z,1.5
2023-04-15T02:30:17.281Z,3
2023-04-15T03:00:09.314Z,3
2023-04-15T03:30:24.330Z,2.8
2023-04-15T04:00:25.030Z,2
2023-04-15T04:30:10.139Z,3.5
2023-04-15T05:30:28.526Z,2.5
2023-04-15T06:00:12.683Z,5.1
2023-04-15T06:30:13.355Z,6.9
2023-04-15T07:00:06.120Z,7.6
2023-04-15T07:30:06.497Z,8.1
2023-04-15T08:00:13.161Z,10.1
2023-04-15T08:30:13.901Z,11.4
2023-04-15T09:00:13.548Z,13.1
2023-04-15T09:30:00.135Z,14.9
2023-04-15T10:00:18.851Z,15.1
2023-04-15T10:30:11.084Z,14.9
2023-04-15T11:00:11.158Z,16
2023-04-15T11:30:26.986Z,13.7
2023-04-15T12:00:18.368Z,13.7
2023-04-15T12:30:03.078Z,15.3
2023-04-15T13:00:26.018Z,17.1
2023-04-15T13:30:10.879Z,16.1
2023-04-15T14:00:10.835Z,16.2
2023-04-15T14:30:13.936Z,16.5
2023-04-15T15:00:28.909Z,15.1
2023-04-15T15:30:14.735Z,13.7
2023-04-15T16:30:06.949Z,11.1
2023-04-15T17:00:28.365Z,10.1
2023-04-15T17:30:29.252Z,10.7
2023-04-15T18:00:15.477Z,10.6
2023-04-15T18:30:08.038Z,10.1
2023-04-15T19:30:02.483Z,7.6
2023-04-15T20:00:03.308Z,7.2
2023-04-15T20:30:25.900Z,7.5
2023-04-15T21:00:25.799Z,6.7
2023-04-15T21:30:11.330Z,6.7
2023-04-15T22:00:19.141Z,6.5
2023-04-15T22:30:18.602Z,6.3
2023-04-15T23:00:10.523Z,6.4
2023-04-15T23:30:11.501Z,6.4
